sensor_id;sensor_type;location;lat;lon;timestamp;P1;durP1;ratioP1;P2;durP2;ratioP2
29254;SDS011;16277;48.890;2.306;2024-01-15T00:11:05;24.33;;;22.13;;
29254;SDS011;16277;48.890;2.306;2024-01-15T00:26:09;24.60;;;22.03;;
29254;SDS011;16277;48.890;2.306;2024-01-15T00:41:14;23.73;;;21.20;;
29254;SDS011;16277;48.890;2.306;2024-01-15T00:56:18;22.07;;;20.17;;
29254;SDS011;16277;48.890;2.306;2024-01-15T01:11:23;21.53;;;19.80;;
29254;SDS011;16277;48.890;2.306;2024-01-15T01:26:27;21.40;;;19.40;;
29254;SDS011;16277;48.890;2.306;2024-01-15T01:41:32;19.80;;;18.40;;
29254;SDS011;16277;48.890;2.306;2024-01-15T01:56:36;22.40;;;20.20;;
29254;SDS011;16277;48.890;2.306;2024-01-15T02:11:41;20.70;;;18.97;;
29254;SDS011;16277;48.890;2.306;2024-01-15T02:26:45;24.77;;;20.47;;
29254;SDS011;16277;48.890;2.306;2024-01-15T02:41:50;21.63;;;19.80;;
29254;SDS011;16277;48.890;2.306;2024-01-15T02:56:55;19.20;;;17.80;;
29254;SDS011;16277;48.890;2.306;2024-01-15T03:11:59;20.43;;;18.43;;
29254;SDS011;16277;48.890;2.306;2024-01-15T03:27:04;19.53;;;17.90;;
29254;SDS011;16277;48.890;2.306;2024-01-15T03:42:08;20.77;;;19.17;;
29254;SDS011;16277;48.890;2.306;2024-01-15T03:57:13;20.27;;;18.57;;
29254;SDS011;16277;48.890;2.306;2024-01-15T04:12:17;17.93;;;16.63;;
29254;SDS011;16277;48.890;2.306;2024-01-15T04:27:22;19.17;;;17.77;;
29254;SDS011;16277;48.890;2.306;2024-01-15T04:42:27;19.60;;;18.20;;
29254;SDS011;16277;48.890;2.306;2024-01-15T04:57:31;18.43;;;17.20;;
29254;SDS011;16277;48.890;2.306;2024-01-15T05:12:36;17.07;;;15.70;;
29254;SDS011;16277;48.890;2.306;2024-01-15T05:27:41;15.87;;;14.73;;
29254;SDS011;16277;48.890;2.306;2024-01-15T05:42:45;16.03;;;14.83;;
29254;SDS011;16277;48.890;2.306;2024-01-15T05:57:50;15.80;;;14.80;;
29254;SDS011;16277;48.890;2.306;2024-01-15T06:12:54;13.03;;;12.43;;
29254;SDS011;16277;48.890;2.306;2024-01-15T06:28:00;13.23;;;12.43;;
29254;SDS011;16277;48.890;2.306;2024-01-15T06:43:04;14.77;;;13.97;;
29254;SDS011;16277;48.890;2.306;2024-01-15T06:58:09;19.83;;;18.30;;
29254;SDS011;16277;48.890;2.306;2024-01-15T07:13:13;19.30;;;17.60;;
29254;SDS011;16277;48.890;2.306;2024-01-15T07:28:18;26.00;;;18.60;;
29254;SDS011;16277;48.890;2.306;2024-01-15T07:43:22;21.20;;;18.80;;
29254;SDS011;16277;48.890;2.306;2024-01-15T07:58:27;61.53;;;24.87;;
29254;SDS011;16277;48.890;2.306;2024-01-15T08:13:31;21.57;;;18.30;;
29254;SDS011;16277;48.890;2.306;2024-01-15T08:28:36;20.17;;;18.20;;
29254;SDS011;16277;48.890;2.306;2024-01-15T08:43:41;24.37;;;18.90;;
29254;SDS011;16277;48.890;2.306;2024-01-15T08:58:46;30.63;;;18.70;;
29254;SDS011;16277;48.890;2.306;2024-01-15T09:13:51;22.80;;;17.83;;
29254;SDS011;16277;48.890;2.306;2024-01-15T09:28:55;16.23;;;15.07;;
29254;SDS011;16277;48.890;2.306;2024-01-15T09:44:01;15.83;;;14.30;;
29254;SDS011;16277;48.890;2.306;2024-01-15T09:59:07;12.60;;;11.37;;
29254;SDS011;16277;48.890;2.306;2024-01-15T10:14:11;13.70;;;12.07;;
29254;SDS011;16277;48.890;2.306;2024-01-15T10:29:16;12.67;;;9.80;;
29254;SDS011;16277;48.890;2.306;2024-01-15T10:44:21;6.53;;;5.83;;
29254;SDS011;16277;48.890;2.306;2024-01-15T10:59:25;16.60;;;4.93;;
29254;SDS011;16277;48.890;2.306;2024-01-15T11:14:38;16.10;;;3.60;;
29254;SDS011;16277;48.890;2.306;2024-01-15T11:29:43;5.80;;;2.10;;
29254;SDS011;16277;48.890;2.306;2024-01-15T11:44:47;9.87;;;3.00;;
29254;SDS011;16277;48.890;2.306;2024-01-15T11:59:52;6.33;;;2.53;;
29254;SDS011;16277;48.890;2.306;2024-01-15T12:14:57;20.07;;;2.87;;
29254;SDS011;16277;48.890;2.306;2024-01-15T12:30:02;8.97;;;2.37;;
29254;SDS011;16277;48.890;2.306;2024-01-15T12:45:08;6.30;;;2.50;;
29254;SDS011;16277;48.890;2.306;2024-01-15T13:00:14;2.13;;;1.50;;
29254;SDS011;16277;48.890;2.306;2024-01-15T13:15:20;4.63;;;1.63;;
29254;SDS011;16277;48.890;2.306;2024-01-15T13:30:25;12.17;;;1.97;;
29254;SDS011;16277;48.890;2.306;2024-01-15T13:45:30;3.50;;;0.83;;
29254;SDS011;16277;48.890;2.306;2024-01-15T14:00:35;1.97;;;1.77;;
29254;SDS011;16277;48.890;2.306;2024-01-15T14:15:39;9.97;;;5.90;;
29254;SDS011;16277;48.890;2.306;2024-01-15T14:30:44;6.57;;;2.43;;
29254;SDS011;16277;48.890;2.306;2024-01-15T14:45:48;11.53;;;1.30;;
29254;SDS011;16277;48.890;2.306;2024-01-15T15:00:53;7.13;;;1.07;;
29254;SDS011;16277;48.890;2.306;2024-01-15T15:15:59;3.40;;;1.60;;
29254;SDS011;16277;48.890;2.306;2024-01-15T15:31:03;7.43;;;1.13;;
29254;SDS011;16277;48.890;2.306;2024-01-15T15:46:11;4.43;;;2.10;;
29254;SDS011;16277;48.890;2.306;2024-01-15T16:01:15;2.70;;;1.47;;
29254;SDS011;16277;48.890;2.306;2024-01-15T16:16:20;9.80;;;1.20;;
29254;SDS011;16277;48.890;2.306;2024-01-15T16:31:44;7.20;;;1.90;;
29254;SDS011;16277;48.890;2.306;2024-01-15T16:46:49;4.47;;;2.73;;
29254;SDS011;16277;48.890;2.306;2024-01-15T17:01:53;9.90;;;2.40;;
29254;SDS011;16277;48.890;2.306;2024-01-15T17:16:58;2.10;;;2.00;;
29254;SDS011;16277;48.890;2.306;2024-01-15T17:32:02;18.23;;;3.37;;
29254;SDS011;16277;48.890;2.306;2024-01-15T17:47:07;11.70;;;3.60;;
29254;SDS011;16277;48.890;2.306;2024-01-15T18:02:12;3.27;;;3.13;;
29254;SDS011;16277;48.890;2.306;2024-01-15T18:17:17;11.07;;;5.90;;
29254;SDS011;16277;48.890;2.306;2024-01-15T18:32:23;9.03;;;5.53;;
29254;SDS011;16277;48.890;2.306;2024-01-15T18:47:29;10.43;;;8.00;;
29254;SDS011;16277;48.890;2.306;2024-01-15T19:02:33;11.67;;;8.03;;
29254;SDS011;16277;48.890;2.306;2024-01-15T19:17:38;14.03;;;6.20;;
29254;SDS011;16277;48.890;2.306;2024-01-15T19:32:42;23.03;;;7.20;;
29254;SDS011;16277;48.890;2.306;2024-01-15T19:47:47;18.87;;;9.83;;
29254;SDS011;16277;48.890;2.306;2024-01-15T20:02:52;36.40;;;18.43;;
29254;SDS011;16277;48.890;2.306;2024-01-15T20:17:56;17.83;;;10.20;;
29254;SDS011;16277;48.890;2.306;2024-01-15T20:33:02;22.23;;;17.17;;
29254;SDS011;16277;48.890;2.306;2024-01-15T20:48:07;18.83;;;16.47;;
29254;SDS011;16277;48.890;2.306;2024-01-15T21:03:12;36.10;;;19.13;;
29254;SDS011;16277;48.890;2.306;2024-01-15T21:18:16;31.53;;;18.83;;
29254;SDS011;16277;48.890;2.306;2024-01-15T21:33:21;23.60;;;16.53;;
29254;SDS011;16277;48.890;2.306;2024-01-15T21:48:26;28.03;;;16.20;;
29254;SDS011;16277;48.890;2.306;2024-01-15T22:03:30;24.37;;;15.73;;
29254;SDS011;16277;48.890;2.306;2024-01-15T22:18:35;30.47;;;18.43;;
29254;SDS011;16277;48.890;2.306;2024-01-15T22:33:39;28.20;;;19.73;;
29254;SDS011;16277;48.890;2.306;2024-01-15T22:48:44;53.57;;;30.80;;
29254;SDS011;16277;48.890;2.306;2024-01-15T23:03:49;36.50;;;18.97;;
29254;SDS011;16277;48.890;2.306;2024-01-15T23:18:54;23.60;;;18.57;;
29254;SDS011;16277;48.890;2.306;2024-01-15T23:33:59;37.20;;;19.00;;
29254;SDS011;16277;48.890;2.306;2024-01-15T23:49:04;33.27;;;20.43;;
